Shinshar, Syria
Current Conditions -  °F | °C
As of 3:00 PM on Sunday 21 Dec 2014 (Local Time) from OSDI Reporting Station
Haze Haze  
Wind Chill: 44°   Ceiling: 10000
Heat Index: 46°   Visibility: 0.75mi
Dew Point: 45°   Wind: 5mph
Humidity: 93%   Direction: 170°S
Pressure: 30.12"   Gusts: NA
Location:  34.56°N, 36.78°E
Report Text: OSDI 211200Z 17004KT 1200 R23/1200 BR SCT026 BKN100 08/07 Q1020
Loading
Personal Weather Stations






























Interactive Weather Map New forecast layout! Learn more

10-Day Weather Forecast

Advertisements
Track Severe Weather on mobile